Time;durP1;ratioP1;P1;durP2;ratioP2;P2;SDS_P1;SDS_P2;PMS_P1;PMS_P2;Temp;Humidity;BMP_temperature;BMP_pressure;BME280_temperature;BME280_humidity;BME280_pressure;Samples;Min_cycle;Max_cycle;Signal;HPM_P1;HPM_P2
2024/03/14 00:02:18;;;;;;;7.03;4.07;;;12.20;89.40;;;;;;4996151;28;20026;-78
2024/03/14 00:04:44;;;;;;;7.10;4.38;;;12.10;89.30;;;;;;4996103;28;20037;-78
2024/03/14 00:07:10;;;;;;;6.72;4.07;;;12.10;89.40;;;;;;4995253;28;20053;-77
2024/03/14 00:09:35;;;;;;;7.07;4.07;;;12.10;89.40;;;;;;5013279;28;20049;-78
2024/03/14 00:12:01;;;;;;;6.32;3.95;;;12.10;89.40;;;;;;5013095;28;20057;-77
2024/03/14 00:14:26;;;;;;;7.15;4.20;;;12.10;89.40;;;;;;4996024;28;20018;-78
2024/03/14 00:16:52;;;;;;;6.90;4.00;;;12.10;89.50;;;;;;5013401;28;20021;-78
2024/03/14 00:19:19;;;;;;;8.35;4.28;;;12.10;89.50;;;;;;5013408;28;20081;-77
2024/03/14 00:21:46;;;;;;;6.63;3.80;;;12.10;89.40;;;;;;5012943;28;20101;-78
2024/03/14 00:24:11;;;;;;;6.22;3.60;;;12.10;89.50;;;;;;5013154;28;20045;-78
2024/03/14 00:26:37;;;;;;;7.55;4.20;;;12.20;89.50;;;;;;4995688;28;20018;-78
2024/03/14 00:29:02;;;;;;;7.60;3.97;;;12.10;89.40;;;;;;4995514;28;20030;-78
2024/03/14 00:31:29;;;;;;;6.82;3.88;;;12.10;90.00;;;;;;4995291;28;20395;-78
2024/03/14 00:33:56;;;;;;;6.95;4.30;;;12.10;89.40;;;;;;5013013;28;20014;-78
2024/03/14 00:36:21;;;;;;;7.15;4.20;;;12.10;89.40;;;;;;4995600;28;20034;-78
2024/03/14 00:38:47;;;;;;;6.25;3.80;;;12.10;89.30;;;;;;4995025;28;20057;-78
2024/03/14 00:41:15;;;;;;;6.47;3.78;;;12.10;89.40;;;;;;5012686;28;20052;-78
2024/03/14 00:43:41;;;;;;;6.47;3.85;;;12.10;89.40;;;;;;4994965;28;20037;-78
2024/03/14 00:46:06;;;;;;;6.20;3.78;;;12.10;89.30;;;;;;5012930;28;20030;-78
2024/03/14 00:48:32;;;;;;;7.07;3.85;;;12.10;89.40;;;;;;5012836;28;20498;-78
2024/03/14 00:50:58;;;;;;;6.40;4.00;;;12.20;89.40;;;;;;4994730;28;20021;-78
2024/03/14 00:53:24;;;;;;;6.55;4.10;;;12.10;89.30;;;;;;5012408;28;20514;-78
2024/03/14 00:55:50;;;;;;;6.97;3.92;;;12.10;89.40;;;;;;4994952;28;20045;-78
2024/03/14 00:58:15;;;;;;;6.28;3.78;;;12.10;89.30;;;;;;4995305;28;20060;-78
2024/03/14 01:00:41;;;;;;;6.88;3.80;;;12.10;89.40;;;;;;5012363;28;20038;-78
2024/03/14 01:03:08;;;;;;;7.35;4.18;;;12.10;89.30;;;;;;4994510;28;20034;-77
2024/03/14 01:05:36;;;;;;;6.88;4.28;;;12.10;89.30;;;;;;4994832;28;20037;-78
2024/03/14 01:08:02;;;;;;;6.47;3.70;;;12.10;89.30;;;;;;5012552;28;20041;-78
2024/03/14 01:10:28;;;;;;;7.05;4.05;;;12.10;89.30;;;;;;5012066;28;20030;-78
2024/03/14 01:12:54;;;;;;;6.45;3.80;;;12.10;89.30;;;;;;4994110;28;20022;-77
2024/03/14 01:15:22;;;;;;;7.18;4.38;;;12.10;89.30;;;;;;4994653;28;20483;-78
2024/03/14 01:17:48;;;;;;;6.28;3.83;;;12.10;89.30;;;;;;4994335;28;20025;-78
2024/03/14 01:20:16;;;;;;;6.75;3.63;;;12.10;89.30;;;;;;5010872;28;20116;-78
2024/03/14 01:22:42;;;;;;;5.95;3.45;;;12.10;89.30;;;;;;5011826;28;20599;-78
2024/03/14 01:25:07;;;;;;;6.72;3.88;;;12.10;89.30;;;;;;5012160;28;20029;-79
2024/03/14 01:27:33;;;;;;;6.43;3.85;;;12.20;89.40;;;;;;4994070;28;20033;-76
2024/03/14 01:29:59;;;;;;;7.07;3.80;;;12.10;89.30;;;;;;4994147;28;20022;-78
2024/03/14 01:32:25;;;;;;;6.22;3.58;;;12.10;89.30;;;;;;4993944;28;20029;-79
2024/03/14 01:34:51;;;;;;;7.03;3.83;;;12.10;89.30;;;;;;5011717;28;20033;-78
2024/03/14 01:37:16;;;;;;;5.88;3.40;;;12.10;89.30;;;;;;4994334;28;20022;-78
2024/03/14 01:39:42;;;;;;;6.30;3.65;;;12.10;89.30;;;;;;4993825;28;20041;-78
2024/03/14 01:42:11;;;;;;;5.78;3.33;;;12.10;89.30;;;;;;4994004;28;20353;-78
2024/03/14 01:44:54;;;;;;;6.60;3.85;;;12.10;89.30;;;;;;5011830;28;20465;-78
2024/03/14 01:47:21;;;;;;;6.15;3.63;;;12.10;89.30;;;;;;5012603;28;20558;-79
2024/03/14 01:49:50;;;;;;;5.63;3.63;;;12.10;89.30;;;;;;4994253;28;20025;-78
2024/03/14 01:52:16;;;;;;;5.90;3.40;;;12.10;89.30;;;;;;4994033;28;20021;-79
2024/03/14 01:54:42;;;;;;;6.22;3.53;;;12.10;89.30;;;;;;5011782;28;20033;-78
2024/03/14 01:57:09;;;;;;;5.97;3.67;;;12.20;89.40;;;;;;5011705;28;20029;-79
2024/03/14 01:59:36;;;;;;;6.20;3.60;;;12.10;89.30;;;;;;5011269;28;20022;-78
2024/03/14 02:02:02;;;;;;;5.68;3.28;;;12.10;89.30;;;;;;4993925;28;20034;-78
2024/03/14 02:04:45;;;;;;;7.88;3.97;;;12.10;89.30;;;;;;4993847;28;20025;-78
2024/03/14 02:07:13;;;;;;;5.18;3.17;;;12.10;89.40;;;;;;4973425;28;20130;-79
2024/03/14 02:09:40;;;;;;;6.75;3.70;;;12.10;89.30;;;;;;4972438;28;20120;-78
2024/03/14 02:12:07;;;;;;;5.88;3.50;;;12.10;89.30;;;;;;4989571;28;20029;-78
2024/03/14 02:14:33;;;;;;;6.35;3.50;;;12.20;89.40;;;;;;4989859;28;20050;-78
2024/03/14 02:16:59;;;;;;;6.00;3.60;;;12.10;89.30;;;;;;4990389;28;20033;-80
2024/03/14 02:19:25;;;;;;;5.97;3.53;;;12.10;89.40;;;;;;4972977;28;20022;-78
2024/03/14 02:21:50;;;;;;;6.18;3.65;;;12.10;89.30;;;;;;4990156;28;20022;-77
2024/03/14 02:24:19;;;;;;;5.65;3.45;;;12.10;89.40;;;;;;4991500;28;20080;-79
2024/03/14 02:26:44;;;;;;;6.32;3.78;;;12.10;89.40;;;;;;4973975;28;20109;-78
2024/03/14 02:29:10;;;;;;;6.38;3.80;;;12.10;89.30;;;;;;4973915;28;20502;-79
2024/03/14 02:31:36;;;;;;;6.15;3.38;;;12.10;89.40;;;;;;4990793;28;20406;-79
2024/03/14 02:34:04;;;;;;;5.70;3.50;;;12.10;89.40;;;;;;4973466;28;20089;-79
2024/03/14 02:36:31;;;;;;;6.45;3.63;;;12.10;89.40;;;;;;4991341;28;20018;-78
2024/03/14 02:38:56;;;;;;;6.47;3.75;;;12.10;89.40;;;;;;4974029;28;20507;-78
2024/03/14 02:41:22;;;;;;;6.38;3.63;;;12.10;89.40;;;;;;4991108;28;20076;-79
2024/03/14 02:43:57;;;;;;;5.75;3.30;;;12.10;89.40;;;;;;4973432;28;20051;-78
2024/03/14 02:46:25;;;;;;;6.88;4.15;;;12.10;89.90;;;;;;4991198;28;20471;-78
2024/03/14 02:48:51;;;;;;;6.53;3.78;;;12.10;89.30;;;;;;4991446;28;20027;-79
2024/03/14 02:51:19;;;;;;;5.95;3.15;;;12.10;89.40;;;;;;4973665;28;20547;-78
2024/03/14 02:53:46;;;;;;;5.82;3.67;;;12.10;89.40;;;;;;4991115;28;20431;-79
2024/03/14 02:56:11;;;;;;;5.57;3.13;;;12.10;89.40;;;;;;4973705;28;20109;-78
2024/03/14 02:58:37;;;;;;;6.30;3.42;;;12.20;89.40;;;;;;4973599;28;20110;-78
2024/03/14 03:01:08;;;;;;;5.93;3.58;;;12.10;89.30;;;;;;4990677;28;20070;-78
2024/03/14 03:03:37;;;;;;;5.95;3.40;;;12.10;89.40;;;;;;4990788;28;20022;-78
2024/03/14 03:06:10;;;;;;;6.63;3.78;;;12.10;89.30;;;;;;4990756;28;20034;-76
2024/03/14 03:08:37;;;;;;;6.07;3.40;;;12.10;89.40;;;;;;4974144;28;20529;-78
2024/03/14 03:11:02;;;;;;;6.35;3.70;;;12.10;89.30;;;;;;4991007;28;20080;-79
2024/03/14 03:13:28;;;;;;;6.55;3.60;;;12.10;89.40;;;;;;4973116;28;20022;-78
2024/03/14 03:15:54;;;;;;;6.47;3.45;;;12.10;89.30;;;;;;4990626;28;20399;-76
2024/03/14 03:18:19;;;;;;;6.10;3.40;;;12.10;89.30;;;;;;4973340;28;20030;-79
2024/03/14 03:20:45;;;;;;;5.93;3.50;;;12.10;89.30;;;;;;4990833;28;20058;-78
2024/03/14 03:23:12;;;;;;;5.80;3.60;;;12.10;89.40;;;;;;4990975;28;20607;-78
2024/03/14 03:25:38;;;;;;;5.45;3.15;;;12.10;89.40;;;;;;4990839;28;20157;-78
2024/03/14 03:28:14;;;;;;;5.50;3.20;;;12.20;89.40;;;;;;4973188;28;20117;-78
2024/03/14 03:30:40;;;;;;;5.85;3.38;;;12.10;89.30;;;;;;4990585;28;20037;-78
2024/03/14 03:33:07;;;;;;;5.60;3.33;;;12.10;89.40;;;;;;4990509;28;20076;-78
2024/03/14 03:35:33;;;;;;;5.95;3.58;;;12.10;89.30;;;;;;4990793;28;20014;-78
2024/03/14 03:38:00;;;;;;;6.22;3.00;;;12.10;89.40;;;;;;4990706;28;20019;-78
2024/03/14 03:40:30;;;;;;;6.30;3.53;;;12.10;89.40;;;;;;4973057;28;20030;-78
2024/03/14 03:42:55;;;;;;;5.68;3.35;;;12.10;89.40;;;;;;4991359;28;20026;-78
2024/03/14 03:45:21;;;;;;;5.13;3.00;;;12.10;89.40;;;;;;4994237;28;20034;-78
2024/03/14 03:47:46;;;;;;;5.43;3.00;;;12.10;89.30;;;;;;4981176;28;20026;-78
2024/03/14 03:50:12;;;;;;;6.65;3.25;;;12.20;89.40;;;;;;4995993;28;20487;-78
2024/03/14 03:52:40;;;;;;;5.45;3.10;;;12.10;89.40;;;;;;5012845;28;20026;-77
2024/03/14 03:55:07;;;;;;;6.03;3.67;;;12.10;89.30;;;;;;5013825;28;20491;-78
2024/03/14 03:57:33;;;;;;;5.95;3.60;;;12.10;89.40;;;;;;5013887;28;20018;-79
2024/03/14 03:59:59;;;;;;;6.00;3.42;;;12.10;89.40;;;;;;5013750;28;20044;-78
2024/03/14 04:02:26;;;;;;;5.90;3.50;;;12.10;89.40;;;;;;4995699;28;20022;-78
2024/03/14 04:04:57;;;;;;;5.40;3.30;;;12.10;89.40;;;;;;5013660;28;20380;-78
2024/03/14 04:07:26;;;;;;;5.90;3.15;;;12.10;89.30;;;;;;4995886;28;20033;-77
2024/03/14 04:09:52;;;;;;;5.50;3.13;;;12.10;89.40;;;;;;5013682;28;20041;-78
2024/03/14 04:12:18;;;;;;;5.40;3.17;;;12.10;89.40;;;;;;4995450;28;20025;-78
2024/03/14 04:14:43;;;;;;;5.30;2.92;;;12.10;89.40;;;;;;5013335;28;20088;-78
2024/03/14 04:17:11;;;;;;;6.20;3.40;;;12.10;89.40;;;;;;4995657;28;20512;-78
2024/03/14 04:19:37;;;;;;;5.50;3.28;;;12.10;89.40;;;;;;4995286;28;20566;-78
2024/03/14 04:22:04;;;;;;;4.88;2.88;;;12.20;89.50;;;;;;4995333;28;20121;-78
2024/03/14 04:24:32;;;;;;;5.65;3.38;;;12.10;89.40;;;;;;4995607;28;20053;-78
2024/03/14 04:27:00;;;;;;;5.57;3.30;;;12.10;89.40;;;;;;5013343;28;20030;-78
2024/03/14 04:29:27;;;;;;;5.70;3.30;;;12.20;89.50;;;;;;4995607;28;20022;-78
2024/03/14 04:31:53;;;;;;;5.60;3.10;;;12.10;89.40;;;;;;4995014;28;20022;-78
2024/03/14 04:34:20;;;;;;;5.65;3.35;;;12.10;89.40;;;;;;4995312;28;20404;-78
2024/03/14 04:36:46;;;;;;;5.90;3.40;;;12.10;89.40;;;;;;4995233;28;20112;-78
2024/03/14 04:39:14;;;;;;;5.70;3.17;;;12.10;89.40;;;;;;5013045;28;20168;-78
2024/03/14 04:41:40;;;;;;;5.75;3.42;;;12.10;89.40;;;;;;5012792;28;20371;-77
2024/03/14 04:44:07;;;;;;;5.80;3.42;;;12.10;89.40;;;;;;4994891;28;20032;-78
2024/03/14 04:46:33;;;;;;;5.85;3.40;;;12.10;89.40;;;;;;4994942;28;20030;-78
2024/03/14 04:48:58;;;;;;;5.82;3.38;;;12.10;89.40;;;;;;5012698;28;20053;-78
2024/03/14 04:51:24;;;;;;;5.47;3.20;;;12.10;89.50;;;;;;5012637;28;20036;-78
2024/03/14 04:53:50;;;;;;;5.68;3.30;;;12.10;89.40;;;;;;5012139;28;20026;-78
2024/03/14 04:56:15;;;;;;;5.32;3.30;;;12.20;89.50;;;;;;5013534;28;20054;-77
2024/03/14 04:58:41;;;;;;;5.22;3.00;;;12.10;89.40;;;;;;5013133;28;20034;-77
2024/03/14 05:01:07;;;;;;;6.07;3.33;;;12.20;89.50;;;;;;5013239;28;20046;-78
2024/03/14 05:03:33;;;;;;;5.75;2.95;;;12.10;89.50;;;;;;4994541;28;20068;-78
2024/03/14 05:05:58;;;;;;;5.72;3.60;;;12.10;89.50;;;;;;4994803;28;20349;-78
2024/03/14 05:08:24;;;;;;;6.10;3.38;;;12.10;89.50;;;;;;4994782;28;20037;-77
2024/03/14 05:10:50;;;;;;;5.57;3.38;;;12.10;89.50;;;;;;5013326;28;20026;-79
2024/03/14 05:13:15;;;;;;;5.80;3.42;;;12.10;89.50;;;;;;4995542;28;20129;-77
2024/03/14 05:15:41;;;;;;;6.47;3.30;;;12.10;89.50;;;;;;4996268;28;20121;-78
2024/03/14 05:18:07;;;;;;;5.60;3.17;;;12.10;89.50;;;;;;5014075;28;20128;-77
2024/03/14 05:20:33;;;;;;;4.85;2.88;;;12.10;89.50;;;;;;4996119;28;20030;-77
2024/03/14 05:22:59;;;;;;;5.30;3.13;;;12.10;89.50;;;;;;5014105;28;20034;-78
2024/03/14 05:25:24;;;;;;;5.63;3.28;;;12.10;89.50;;;;;;4996471;28;20030;-79
2024/03/14 05:27:50;;;;;;;5.55;3.22;;;12.10;89.50;;;;;;4996251;28;20116;-78
2024/03/14 05:30:18;;;;;;;5.68;3.00;;;12.10;89.50;;;;;;4996201;28;20033;-77
2024/03/14 05:32:47;;;;;;;6.20;3.83;;;12.10;89.50;;;;;;5013418;28;20025;-78
2024/03/14 05:35:13;;;;;;;5.65;3.40;;;12.10;89.50;;;;;;4993223;28;20486;-80
2024/03/14 05:37:39;;;;;;;5.43;3.13;;;12.10;89.50;;;;;;4991576;28;20026;-78
2024/03/14 05:40:09;;;;;;;6.70;3.97;;;12.10;89.50;;;;;;5006823;28;20565;-79
2024/03/14 05:42:35;;;;;;;5.70;3.10;;;12.10;89.50;;;;;;4995379;28;20052;-80
2024/03/14 05:45:01;;;;;;;5.22;3.28;;;12.10;89.50;;;;;;4992942;28;20446;-79
2024/03/14 05:47:27;;;;;;;6.18;3.55;;;12.10;89.50;;;;;;4999684;28;20450;-78
2024/03/14 05:49:52;;;;;;;5.72;3.40;;;12.10;89.50;;;;;;5004990;28;20101;-78
2024/03/14 05:52:18;;;;;;;6.15;3.70;;;12.10;89.50;;;;;;4989602;28;20159;-79
2024/03/14 05:54:46;;;;;;;5.95;3.38;;;12.20;89.50;;;;;;4990990;28;20026;-79
2024/03/14 05:57:14;;;;;;;5.95;3.60;;;12.10;89.50;;;;;;5003363;28;20022;-78
2024/03/14 05:59:40;;;;;;;5.82;3.45;;;12.10;89.50;;;;;;5007036;28;20030;-79
2024/03/14 06:02:08;;;;;;;5.93;3.58;;;12.10;89.50;;;;;;5007978;28;20504;-79
2024/03/14 06:04:37;;;;;;;5.50;3.35;;;12.10;89.50;;;;;;4991502;28;20376;-79
2024/03/14 06:07:03;;;;;;;5.57;3.30;;;12.10;89.50;;;;;;5007743;28;20021;-81
2024/03/14 06:09:41;;;;;;;5.72;3.53;;;12.20;89.60;;;;;;4989570;28;20080;-77
2024/03/14 06:12:10;;;;;;;5.70;3.30;;;12.10;89.50;;;;;;4990201;28;20018;-78
2024/03/14 06:14:36;;;;;;;5.45;3.38;;;12.20;89.50;;;;;;5008722;28;20022;-80
2024/03/14 06:17:03;;;;;;;5.95;3.42;;;12.20;89.60;;;;;;5009728;28;20317;-77
2024/03/14 06:19:28;;;;;;;6.40;3.55;;;12.10;89.50;;;;;;5009147;28;20060;-78
2024/03/14 06:21:56;;;;;;;5.65;3.05;;;12.10;89.50;;;;;;4990984;28;20038;-77
2024/03/14 06:24:22;;;;;;;5.57;3.40;;;12.10;89.50;;;;;;4990593;28;20037;-77
2024/03/14 06:26:47;;;;;;;5.70;3.35;;;12.10;89.50;;;;;;5007845;28;20052;-78
2024/03/14 06:29:13;;;;;;;5.95;3.40;;;12.10;90.00;;;;;;4991897;28;20144;-77
2024/03/14 06:31:38;;;;;;;5.90;3.60;;;12.20;89.60;;;;;;5007711;28;20101;-79
2024/03/14 06:34:04;;;;;;;6.22;3.60;;;12.10;89.50;;;;;;5008181;28;20105;-76
2024/03/14 06:36:29;;;;;;;6.30;3.58;;;12.20;89.60;;;;;;5007620;28;20398;-77
2024/03/14 06:38:55;;;;;;;6.13;3.53;;;12.10;89.50;;;;;;5008521;28;20538;-77
2024/03/14 06:41:21;;;;;;;5.78;3.60;;;12.20;89.50;;;;;;4990017;28;20036;-78
2024/03/14 06:43:47;;;;;;;6.13;3.80;;;12.10;89.50;;;;;;4991596;28;20026;-77
2024/03/14 06:46:16;;;;;;;5.93;3.35;;;12.10;89.50;;;;;;4990698;28;20525;-77
2024/03/14 06:48:41;;;;;;;5.25;3.13;;;12.20;89.60;;;;;;4990258;28;20034;-79
2024/03/14 06:51:07;;;;;;;6.57;4.07;;;12.20;89.60;;;;;;5006315;28;20076;-78
2024/03/14 06:53:32;;;;;;;5.93;3.45;;;12.20;89.70;;;;;;4990967;28;20037;-77
2024/03/14 06:55:58;;;;;;;6.25;3.78;;;12.20;89.60;;;;;;5008072;28;20483;-77
2024/03/14 06:58:24;;;;;;;6.30;3.58;;;12.20;89.60;;;;;;4989560;28;20026;-78
2024/03/14 07:00:50;;;;;;;6.57;3.80;;;12.20;89.60;;;;;;5009886;28;20060;-78
2024/03/14 07:03:16;;;;;;;15.52;5.05;;;12.20;89.60;;;;;;5008578;28;20061;-77
2024/03/14 07:05:43;;;;;;;15.50;5.00;;;12.20;89.80;;;;;;5012036;28;20037;-78
2024/03/14 07:08:11;;;;;;;8.25;4.47;;;12.20;89.90;;;;;;4991316;28;20022;-78
2024/03/14 07:10:38;;;;;;;12.77;5.68;;;12.20;90.00;;;;;;5010155;28;20022;-77
2024/03/14 07:13:03;;;;;;;13.13;5.95;;;12.20;90.00;;;;;;4989856;28;20157;-77
2024/03/14 07:15:29;;;;;;;12.10;5.18;;;12.20;90.00;;;;;;4989812;28;20112;-77
2024/03/14 07:17:58;;;;;;;17.30;6.20;;;12.20;90.00;;;;;;5010279;28;20469;-77
2024/03/14 07:20:33;;;;;;;14.15;5.47;;;12.20;90.00;;;;;;4993369;28;20096;-77
2024/03/14 07:22:59;;;;;;;10.90;4.95;;;12.20;89.90;;;;;;5012521;28;20620;-78
2024/03/14 07:25:25;;;;;;;21.63;5.78;;;12.20;89.70;;;;;;4993793;28;20041;-75
2024/03/14 07:27:51;;;;;;;10.70;5.28;;;12.30;89.60;;;;;;5011098;28;20034;-77
2024/03/14 07:30:16;;;;;;;16.35;6.00;;;12.30;89.40;;;;;;5011891;28;20072;-78
2024/03/14 07:32:43;;;;;;;9.65;5.10;;;12.30;89.40;;;;;;4998390;28;20026;-78
2024/03/14 07:35:09;;;;;;;11.82;5.32;;;12.40;89.20;;;;;;4995918;28;20569;-76
2024/03/14 07:37:38;;;;;;;12.15;4.88;;;12.40;89.10;;;;;;4994598;28;20521;-77
2024/03/14 07:40:05;;;;;;;12.82;4.95;;;12.40;88.90;;;;;;4994575;28;20135;-78
2024/03/14 07:42:31;;;;;;;11.90;4.70;;;12.40;88.80;;;;;;4993022;28;20387;-79
2024/03/14 07:44:57;;;;;;;14.13;4.97;;;12.50;88.70;;;;;;4994372;28;20030;-78
2024/03/14 07:47:25;;;;;;;13.05;4.60;;;12.50;88.50;;;;;;4994269;28;20026;-79
2024/03/14 07:49:51;;;;;;;9.27;4.28;;;12.50;88.40;;;;;;5013612;28;20418;-79
2024/03/14 07:52:17;;;;;;;9.70;4.45;;;12.60;88.20;;;;;;5013413;28;20455;-78
2024/03/14 07:54:45;;;;;;;8.35;4.20;;;12.60;88.10;;;;;;4995989;28;20057;-79
2024/03/14 07:57:15;;;;;;;9.70;4.80;;;12.60;88.00;;;;;;4995877;28;20426;-78
2024/03/14 07:59:41;;;;;;;10.07;4.60;;;12.70;87.90;;;;;;5013716;28;20021;-79
2024/03/14 08:02:10;;;;;;;9.05;4.57;;;12.70;87.90;;;;;;5012995;28;20026;-79
2024/03/14 08:04:37;;;;;;;9.18;4.65;;;12.70;87.80;;;;;;5013248;28;20025;-78
2024/03/14 08:07:10;;;;;;;9.60;4.47;;;12.70;87.80;;;;;;5013208;28;20044;-79
2024/03/14 08:09:39;;;;;;;10.68;4.70;;;12.70;87.90;;;;;;4995629;28;20087;-77
2024/03/14 08:12:06;;;;;;;9.02;4.57;;;12.70;87.90;;;;;;5012909;28;20037;-79
2024/03/14 08:14:33;;;;;;;8.93;4.40;;;12.70;87.90;;;;;;4995604;28;20034;-79
2024/03/14 08:17:00;;;;;;;9.88;4.53;;;12.70;87.90;;;;;;5013089;28;20030;-79
2024/03/14 08:19:26;;;;;;;9.63;4.50;;;12.70;87.90;;;;;;5013020;28;20042;-79
2024/03/14 08:21:51;;;;;;;9.02;4.45;;;12.70;87.80;;;;;;5012927;28;20034;-77
2024/03/14 08:24:19;;;;;;;7.82;4.50;;;12.70;87.80;;;;;;5012950;28;20561;-79
2024/03/14 08:26:47;;;;;;;8.10;4.25;;;12.70;87.90;;;;;;4995866;28;20050;-78
2024/03/14 08:29:12;;;;;;;7.70;4.18;;;12.70;87.90;;;;;;5013511;28;20050;-79
2024/03/14 08:31:40;;;;;;;7.32;4.35;;;12.70;87.90;;;;;;4994996;28;20018;-79
2024/03/14 08:34:08;;;;;;;9.38;4.85;;;12.70;87.90;;;;;;4995109;28;20025;-79
2024/03/14 08:36:38;;;;;;;7.22;4.03;;;12.70;87.90;;;;;;5012865;28;20371;-79
2024/03/14 08:39:04;;;;;;;9.00;4.68;;;12.70;87.90;;;;;;5012475;28;20451;-79
2024/03/14 08:41:32;;;;;;;8.40;4.53;;;12.70;87.90;;;;;;5012805;28;20376;-78
2024/03/14 08:43:57;;;;;;;7.60;4.28;;;12.70;87.80;;;;;;4994662;28;20026;-79
2024/03/14 08:46:23;;;;;;;8.18;4.43;;;12.70;87.90;;;;;;4994861;28;20048;-79
2024/03/14 08:48:48;;;;;;;6.95;3.97;;;12.70;87.80;;;;;;4994802;28;20033;-78
2024/03/14 08:51:14;;;;;;;10.60;4.75;;;12.80;87.90;;;;;;5012607;28;20229;-78
2024/03/14 08:54:07;;;;;;;8.15;4.22;;;12.80;87.80;;;;;;4994517;28;20394;-78
2024/03/14 08:56:25;;;;;;;7.60;4.20;;;12.80;87.60;;;;;;5012407;28;20026;-78
2024/03/14 08:58:56;;;;;;;7.88;4.45;;;12.90;87.50;;;;;;5012271;28;20030;-77
2024/03/14 09:01:24;;;;;;;6.68;3.72;;;12.90;87.40;;;;;;4994504;28;20029;-79
2024/03/14 09:03:49;;;;;;;8.35;4.43;;;13.00;87.40;;;;;;5011876;28;20030;-79
2024/03/14 09:06:15;;;;;;;6.65;3.80;;;13.00;87.30;;;;;;5012216;28;20079;-78
2024/03/14 09:08:41;;;;;;;7.15;3.72;;;13.00;87.30;;;;;;4994484;28;20399;-78
2024/03/14 09:11:07;;;;;;;6.80;3.78;;;13.00;87.30;;;;;;5012233;28;20099;-80
2024/03/14 09:13:34;;;;;;;7.35;3.97;;;13.00;87.30;;;;;;4994386;28;20028;-79
2024/03/14 09:16:00;;;;;;;7.43;4.18;;;13.00;87.20;;;;;;5012187;28;20080;-80
2024/03/14 09:18:26;;;;;;;6.55;3.90;;;12.90;87.30;;;;;;5012132;28;20025;-78
2024/03/14 09:20:55;;;;;;;7.18;3.92;;;12.90;87.30;;;;;;4994531;28;20124;-77
2024/03/14 09:23:23;;;;;;;7.38;4.22;;;13.00;87.20;;;;;;5011800;28;20333;-79
2024/03/14 09:25:49;;;;;;;6.50;3.80;;;13.00;87.10;;;;;;5011907;28;20029;-78
2024/03/14 09:28:14;;;;;;;7.88;4.00;;;13.00;87.00;;;;;;5011965;28;20034;-79
2024/03/14 09:30:42;;;;;;;7.05;3.78;;;13.10;87.00;;;;;;5012098;28;20033;-79
2024/03/14 09:33:08;;;;;;;6.95;3.70;;;13.10;86.90;;;;;;5011448;28;20080;-79
2024/03/14 09:35:37;;;;;;;7.05;3.90;;;13.10;86.70;;;;;;5011806;28;20038;-79
2024/03/14 09:38:04;;;;;;;7.82;4.43;;;13.20;86.70;;;;;;4993871;28;20034;-79
2024/03/14 09:40:30;;;;;;;6.38;3.70;;;13.20;86.50;;;;;;4993275;28;20029;-79
2024/03/14 09:42:57;;;;;;;5.95;3.65;;;13.20;86.50;;;;;;4993590;28;20513;-79
2024/03/14 09:45:23;;;;;;;6.97;3.60;;;13.30;86.40;;;;;;5011572;28;20483;-79
2024/03/14 09:47:49;;;;;;;7.25;3.95;;;13.20;86.20;;;;;;5011326;28;20064;-79
2024/03/14 09:50:20;;;;;;;6.32;3.80;;;13.40;86.20;;;;;;5011492;28;20101;-79
2024/03/14 09:52:48;;;;;;;6.53;3.53;;;13.40;86.10;;;;;;4993769;28;20026;-78
2024/03/14 09:55:17;;;;;;;6.43;3.80;;;13.40;86.00;;;;;;4993845;28;20057;-78
2024/03/14 09:57:43;;;;;;;6.70;3.90;;;13.50;85.90;;;;;;4993840;28;20029;-79
2024/03/14 10:00:13;;;;;;;6.65;3.60;;;13.50;85.80;;;;;;4993519;28;20029;-79
2024/03/14 10:02:41;;;;;;;6.30;3.72;;;13.50;85.70;;;;;;4993047;28;20088;-79
2024/03/14 10:05:11;;;;;;;5.80;3.50;;;13.50;85.80;;;;;;5010985;28;20045;-79
2024/03/14 10:07:42;;;;;;;6.45;3.55;;;13.50;85.80;;;;;;5010993;28;20033;-79
2024/03/14 10:10:08;;;;;;;6.13;3.95;;;13.50;85.90;;;;;;5011129;28;20369;-78
2024/03/14 10:12:36;;;;;;;6.00;3.78;;;13.50;85.90;;;;;;4993395;28;20022;-79
2024/03/14 10:15:06;;;;;;;6.57;3.80;;;13.40;85.90;;;;;;4993290;28;20117;-79
2024/03/14 10:17:32;;;;;;;6.13;3.60;;;13.50;86.00;;;;;;4993391;28;20323;-79
2024/03/14 10:20:08;;;;;;;6.68;3.72;;;13.50;86.10;;;;;;4993038;28;20025;-78
2024/03/14 10:22:35;;;;;;;5.70;3.50;;;13.40;86.60;;;;;;5010872;28;20037;-79
2024/03/14 10:25:03;;;;;;;6.47;3.45;;;13.40;86.10;;;;;;4993485;28;20561;-78
2024/03/14 10:27:29;;;;;;;5.70;3.50;;;13.50;86.20;;;;;;5011166;28;20025;-79
2024/03/14 10:29:55;;;;;;;7.25;3.67;;;13.50;86.10;;;;;;4993223;28;20030;-79
2024/03/14 10:32:22;;;;;;;6.18;3.75;;;13.50;86.10;;;;;;4992909;28;20010;-79
2024/03/14 10:34:48;;;;;;;6.72;4.07;;;13.50;86.00;;;;;;5011028;28;20022;-78
2024/03/14 10:37:15;;;;;;;6.65;3.65;;;13.50;86.00;;;;;;4993194;28;20037;-79
2024/03/14 10:39:54;;;;;;;6.30;3.70;;;13.50;86.00;;;;;;4992937;28;20429;-79
2024/03/14 10:42:24;;;;;;;5.85;3.45;;;13.50;86.00;;;;;;5010392;28;20052;-79
2024/03/14 10:44:52;;;;;;;6.45;3.67;;;13.50;85.90;;;;;;5011079;28;20080;-79
2024/03/14 10:47:19;;;;;;;6.10;3.60;;;13.50;85.90;;;;;;5010538;28;20406;-79
2024/03/14 10:49:46;;;;;;;6.13;3.55;;;13.50;86.00;;;;;;4993028;28;20506;-79
2024/03/14 10:52:17;;;;;;;6.45;3.67;;;13.60;86.00;;;;;;5013771;28;20041;-79
2024/03/14 10:54:48;;;;;;;7.20;3.92;;;13.60;85.90;;;;;;5017217;28;20105;-78
2024/03/14 10:57:18;;;;;;;5.95;3.40;;;13.60;85.80;;;;;;5017279;28;20056;-79
2024/03/14 10:59:44;;;;;;;5.68;3.72;;;13.60;85.80;;;;;;5016978;28;20022;-79
2024/03/14 11:02:14;;;;;;;5.78;3.67;;;13.60;85.70;;;;;;5016817;28;20474;-79
2024/03/14 11:04:40;;;;;;;5.20;3.13;;;13.70;85.70;;;;;;4999453;28;20030;-78
2024/03/14 11:07:08;;;;;;;5.63;3.30;;;13.60;85.60;;;;;;5016887;28;20022;-79
2024/03/14 11:09:57;;;;;;;6.38;3.80;;;13.70;85.60;;;;;;5017182;28;20033;-77
2024/03/14 11:12:27;;;;;;;5.95;3.60;;;13.70;85.60;;;;;;4999269;28;20030;-79
2024/03/14 11:14:59;;;;;;;6.00;3.40;;;13.70;85.60;;;;;;5016993;28;20112;-78
2024/03/14 11:17:28;;;;;;;5.72;3.47;;;13.70;85.50;;;;;;5017098;28;20022;-79
2024/03/14 11:19:57;;;;;;;6.13;3.60;;;13.80;85.40;;;;;;4999014;28;20483;-78
2024/03/14 11:22:23;;;;;;;6.28;3.70;;;13.70;85.30;;;;;;4998883;28;20034;-79
2024/03/14 11:24:54;;;;;;;6.03;3.60;;;13.80;85.30;;;;;;5016868;28;20026;-79
2024/03/14 11:27:21;;;;;;;5.30;3.30;;;13.80;85.30;;;;;;4999365;28;20026;-79
2024/03/14 11:29:48;;;;;;;6.00;3.70;;;13.80;85.30;;;;;;4999074;28;20026;-78
2024/03/14 11:32:20;;;;;;;5.50;3.28;;;13.80;85.50;;;;;;5016847;28;20084;-79
2024/03/14 11:34:46;;;;;;;5.68;3.50;;;13.70;85.60;;;;;;4999164;28;20022;-78
2024/03/14 11:37:13;;;;;;;5.57;3.45;;;13.70;85.70;;;;;;4999140;28;20183;-79
2024/03/14 11:39:39;;;;;;;5.72;3.40;;;13.70;85.90;;;;;;5016872;28;20041;-78
2024/03/14 11:42:11;;;;;;;5.85;3.25;;;13.70;85.80;;;;;;5016612;28;20022;-81
2024/03/14 11:44:39;;;;;;;5.93;3.40;;;13.70;85.90;;;;;;5016938;28;20025;-79
2024/03/14 11:47:05;;;;;;;5.07;3.15;;;13.70;85.90;;;;;;5020126;28;20029;-79
2024/03/14 11:49:33;;;;;;;5.68;3.40;;;13.70;85.70;;;;;;5001741;28;20375;-78
2024/03/14 11:52:02;;;;;;;5.60;3.40;;;13.70;85.70;;;;;;5001026;28;20564;-80
2024/03/14 11:54:27;;;;;;;5.72;3.47;;;13.70;85.70;;;;;;5021643;28;20034;-79
2024/03/14 11:56:55;;;;;;;5.72;3.38;;;13.70;85.80;;;;;;5019640;28;20044;-79
2024/03/14 11:59:24;;;;;;;6.00;3.60;;;13.60;85.90;;;;;;5016815;28;20033;-78
2024/03/14 12:01:54;;;;;;;5.65;3.40;;;13.60;85.90;;;;;;5015994;28;20145;-78
2024/03/14 12:04:19;;;;;;;6.07;3.40;;;13.70;86.00;;;;;;4995828;28;20030;-79
2024/03/14 12:06:47;;;;;;;5.50;3.33;;;13.70;85.90;;;;;;4995713;28;20030;-79
2024/03/14 12:09:21;;;;;;;6.05;3.20;;;13.70;85.80;;;;;;4995705;28;20117;-78
2024/03/14 12:11:48;;;;;;;5.95;3.22;;;13.70;85.80;;;;;;5013421;28;20030;-79
2024/03/14 12:14:18;;;;;;;6.28;3.67;;;13.70;85.70;;;;;;4997034;28;20029;-79
2024/03/14 12:16:45;;;;;;;5.72;3.60;;;13.70;85.70;;;;;;4996810;28;20025;-79
2024/03/14 12:19:15;;;;;;;5.47;3.25;;;13.70;85.70;;;;;;5013874;28;20525;-79
2024/03/14 12:22:00;;;;;;;5.53;3.28;;;13.70;85.70;;;;;;5013438;28;20411;-80
2024/03/14 12:24:25;;;;;;;5.72;3.53;;;13.70;85.70;;;;;;5013329;28;20572;-79
2024/03/14 12:26:55;;;;;;;5.60;3.40;;;13.80;85.70;;;;;;5013204;28;20041;-79
2024/03/14 12:29:20;;;;;;;6.30;3.53;;;13.80;85.70;;;;;;4996062;28;20022;-79
2024/03/14 12:31:47;;;;;;;5.22;3.35;;;13.80;85.60;;;;;;5012827;28;20033;-80
2024/03/14 12:34:14;;;;;;;5.90;3.40;;;13.80;85.60;;;;;;4995526;28;20052;-80
2024/03/14 12:36:39;;;;;;;5.50;3.47;;;13.80;85.60;;;;;;5013281;28;20598;-79
2024/03/14 12:39:08;;;;;;;5.72;3.50;;;13.80;85.60;;;;;;4995277;28;20073;-80
2024/03/14 12:41:36;;;;;;;5.13;3.03;;;13.80;85.50;;;;;;4995132;28;20508;-79
2024/03/14 12:44:03;;;;;;;5.70;3.47;;;13.80;85.50;;;;;;5012619;28;20116;-79
2024/03/14 12:46:29;;;;;;;6.15;3.47;;;13.80;85.50;;;;;;4995200;28;20036;-79